sensor_id;sensor_type;location;lat;lon;timestamp;P1;durP1;ratioP1;P2;durP2;ratioP2
19814;SDS011;10067;53.092;8.800;2023-04-08T00:01:37;20.65;;;14.98;;
19814;SDS011;10067;53.092;8.800;2023-04-08T00:04:03;22.40;;;16.05;;
19814;SDS011;10067;53.092;8.800;2023-04-08T00:06:30;22.48;;;15.27;;
19814;SDS011;10067;53.092;8.800;2023-04-08T00:08:56;17.00;;;14.50;;
19814;SDS011;10067;53.092;8.800;2023-04-08T00:11:22;19.70;;;14.98;;
19814;SDS011;10067;53.092;8.800;2023-04-08T00:13:49;23.67;;;14.80;;
19814;SDS011;10067;53.092;8.800;2023-04-08T00:16:17;21.33;;;14.20;;
19814;SDS011;10067;53.092;8.800;2023-04-08T00:18:43;19.60;;;14.90;;
19814;SDS011;10067;53.092;8.800;2023-04-08T00:21:09;20.08;;;14.60;;
19814;SDS011;10067;53.092;8.800;2023-04-08T00:23:36;19.85;;;14.02;;
19814;SDS011;10067;53.092;8.800;2023-04-08T00:26:02;18.70;;;14.18;;
19814;SDS011;10067;53.092;8.800;2023-04-08T00:28:28;19.85;;;15.18;;
19814;SDS011;10067;53.092;8.800;2023-04-08T00:30:55;18.13;;;13.70;;
19814;SDS011;10067;53.092;8.800;2023-04-08T00:33:23;19.50;;;14.25;;
19814;SDS011;10067;53.092;8.800;2023-04-08T00:35:50;19.95;;;14.57;;
19814;SDS011;10067;53.092;8.800;2023-04-08T00:38:16;22.65;;;15.52;;
19814;SDS011;10067;53.092;8.800;2023-04-08T00:40:42;24.40;;;16.57;;
19814;SDS011;10067;53.092;8.800;2023-04-08T00:43:09;22.40;;;16.83;;
19814;SDS011;10067;53.092;8.800;2023-04-08T00:45:36;22.80;;;16.48;;
19814;SDS011;10067;53.092;8.800;2023-04-08T00:48:04;24.48;;;16.75;;
19814;SDS011;10067;53.092;8.800;2023-04-08T00:50:32;25.27;;;17.30;;
19814;SDS011;10067;53.092;8.800;2023-04-08T00:52:58;21.63;;;16.15;;
19814;SDS011;10067;53.092;8.800;2023-04-08T00:55:25;21.85;;;15.45;;
19814;SDS011;10067;53.092;8.800;2023-04-08T00:57:51;22.85;;;17.33;;
19814;SDS011;10067;53.092;8.800;2023-04-08T01:00:19;22.23;;;16.45;;
19814;SDS011;10067;53.092;8.800;2023-04-08T01:02:46;21.90;;;16.50;;
19814;SDS011;10067;53.092;8.800;2023-04-08T01:05:15;22.30;;;16.65;;
19814;SDS011;10067;53.092;8.800;2023-04-08T01:07:47;22.35;;;17.08;;
19814;SDS011;10067;53.092;8.800;2023-04-08T01:10:14;24.00;;;17.45;;
19814;SDS011;10067;53.092;8.800;2023-04-08T01:12:42;24.33;;;17.73;;
19814;SDS011;10067;53.092;8.800;2023-04-08T01:15:10;26.40;;;18.23;;
19814;SDS011;10067;53.092;8.800;2023-04-08T01:17:36;24.17;;;17.23;;
19814;SDS011;10067;53.092;8.800;2023-04-08T01:20:04;23.85;;;17.48;;
19814;SDS011;10067;53.092;8.800;2023-04-08T01:22:33;22.38;;;17.55;;
19814;SDS011;10067;53.092;8.800;2023-04-08T01:25:04;22.98;;;17.33;;
19814;SDS011;10067;53.092;8.800;2023-04-08T01:27:33;25.60;;;18.65;;
19814;SDS011;10067;53.092;8.800;2023-04-08T01:30:00;25.10;;;19.08;;
19814;SDS011;10067;53.092;8.800;2023-04-08T01:32:27;24.90;;;18.38;;
19814;SDS011;10067;53.092;8.800;2023-04-08T01:34:54;26.80;;;19.67;;
19814;SDS011;10067;53.092;8.800;2023-04-08T01:37:21;27.67;;;20.27;;
19814;SDS011;10067;53.092;8.800;2023-04-08T01:39:48;28.38;;;20.02;;
19814;SDS011;10067;53.092;8.800;2023-04-08T01:42:16;28.75;;;20.73;;
19814;SDS011;10067;53.092;8.800;2023-04-08T01:44:44;27.95;;;20.65;;
19814;SDS011;10067;53.092;8.800;2023-04-08T01:47:10;32.28;;;21.55;;
19814;SDS011;10067;53.092;8.800;2023-04-08T01:49:38;28.95;;;21.85;;
19814;SDS011;10067;53.092;8.800;2023-04-08T01:52:05;33.38;;;22.02;;
19814;SDS011;10067;53.092;8.800;2023-04-08T01:54:31;32.10;;;22.80;;
19814;SDS011;10067;53.092;8.800;2023-04-08T01:56:59;30.55;;;22.42;;
19814;SDS011;10067;53.092;8.800;2023-04-08T01:59:27;30.55;;;22.20;;
19814;SDS011;10067;53.092;8.800;2023-04-08T02:01:56;33.03;;;23.85;;
19814;SDS011;10067;53.092;8.800;2023-04-08T02:04:23;33.42;;;23.88;;
19814;SDS011;10067;53.092;8.800;2023-04-08T02:06:49;34.65;;;26.10;;
19814;SDS011;10067;53.092;8.800;2023-04-08T02:09:16;36.92;;;25.80;;
19814;SDS011;10067;53.092;8.800;2023-04-08T02:11:42;37.30;;;25.02;;
19814;SDS011;10067;53.092;8.800;2023-04-08T02:14:09;37.97;;;24.42;;
19814;SDS011;10067;53.092;8.800;2023-04-08T02:16:38;31.00;;;22.65;;
19814;SDS011;10067;53.092;8.800;2023-04-08T02:19:09;33.03;;;22.90;;
19814;SDS011;10067;53.092;8.800;2023-04-08T02:21:37;32.78;;;23.05;;
19814;SDS011;10067;53.092;8.800;2023-04-08T02:24:08;28.48;;;20.75;;
19814;SDS011;10067;53.092;8.800;2023-04-08T02:26:35;28.42;;;21.02;;
19814;SDS011;10067;53.092;8.800;2023-04-08T02:29:02;25.83;;;18.98;;
19814;SDS011;10067;53.092;8.800;2023-04-08T02:31:29;26.27;;;17.98;;
19814;SDS011;10067;53.092;8.800;2023-04-08T02:33:56;26.17;;;18.85;;
19814;SDS011;10067;53.092;8.800;2023-04-08T02:36:24;27.42;;;18.83;;
19814;SDS011;10067;53.092;8.800;2023-04-08T02:38:51;28.00;;;17.67;;
19814;SDS011;10067;53.092;8.800;2023-04-08T02:41:17;26.05;;;17.80;;
19814;SDS011;10067;53.092;8.800;2023-04-08T02:43:44;30.92;;;17.90;;
19814;SDS011;10067;53.092;8.800;2023-04-08T02:46:11;33.27;;;19.80;;
19814;SDS011;10067;53.092;8.800;2023-04-08T02:48:38;30.50;;;19.42;;
19814;SDS011;10067;53.092;8.800;2023-04-08T02:51:04;26.77;;;18.48;;
19814;SDS011;10067;53.092;8.800;2023-04-08T02:53:32;29.58;;;18.88;;
19814;SDS011;10067;53.092;8.800;2023-04-08T02:55:58;32.72;;;18.85;;
19814;SDS011;10067;53.092;8.800;2023-04-08T02:58:25;33.15;;;19.17;;
19814;SDS011;10067;53.092;8.800;2023-04-08T03:00:51;36.65;;;20.60;;
19814;SDS011;10067;53.092;8.800;2023-04-08T03:03:18;31.25;;;19.13;;
19814;SDS011;10067;53.092;8.800;2023-04-08T03:05:51;34.42;;;19.52;;
19814;SDS011;10067;53.092;8.800;2023-04-08T03:08:17;31.75;;;17.90;;
19814;SDS011;10067;53.092;8.800;2023-04-08T03:10:45;34.83;;;18.90;;
19814;SDS011;10067;53.092;8.800;2023-04-08T03:13:11;32.92;;;18.92;;
19814;SDS011;10067;53.092;8.800;2023-04-08T03:15:38;29.55;;;19.88;;
19814;SDS011;10067;53.092;8.800;2023-04-08T03:18:04;31.85;;;19.88;;
19814;SDS011;10067;53.092;8.800;2023-04-08T03:20:30;32.92;;;19.02;;
19814;SDS011;10067;53.092;8.800;2023-04-08T03:22:57;30.30;;;19.45;;
19814;SDS011;10067;53.092;8.800;2023-04-08T03:25:23;26.67;;;17.65;;
19814;SDS011;10067;53.092;8.800;2023-04-08T03:27:51;32.80;;;18.75;;
19814;SDS011;10067;53.092;8.800;2023-04-08T03:30:18;35.00;;;20.53;;
19814;SDS011;10067;53.092;8.800;2023-04-08T03:32:44;31.00;;;20.15;;
19814;SDS011;10067;53.092;8.800;2023-04-08T03:35:11;34.47;;;20.27;;
19814;SDS011;10067;53.092;8.800;2023-04-08T03:37:37;34.53;;;20.48;;
19814;SDS011;10067;53.092;8.800;2023-04-08T03:40:04;35.83;;;21.08;;
19814;SDS011;10067;53.092;8.800;2023-04-08T03:42:31;34.05;;;21.58;;
19814;SDS011;10067;53.092;8.800;2023-04-08T03:44:59;33.60;;;21.40;;
19814;SDS011;10067;53.092;8.800;2023-04-08T03:47:25;36.65;;;22.73;;
19814;SDS011;10067;53.092;8.800;2023-04-08T03:49:51;38.03;;;22.42;;
19814;SDS011;10067;53.092;8.800;2023-04-08T03:52:18;36.47;;;22.20;;
19814;SDS011;10067;53.092;8.800;2023-04-08T03:54:44;37.58;;;21.88;;
19814;SDS011;10067;53.092;8.800;2023-04-08T03:57:11;37.35;;;22.63;;
19814;SDS011;10067;53.092;8.800;2023-04-08T03:59:37;35.85;;;22.17;;
19814;SDS011;10067;53.092;8.800;2023-04-08T04:02:06;38.97;;;22.48;;
19814;SDS011;10067;53.092;8.800;2023-04-08T04:04:32;40.58;;;23.58;;
19814;SDS011;10067;53.092;8.800;2023-04-08T04:07:00;37.83;;;23.33;;
19814;SDS011;10067;53.092;8.800;2023-04-08T04:09:27;40.83;;;23.30;;
19814;SDS011;10067;53.092;8.800;2023-04-08T04:11:53;44.25;;;23.48;;
19814;SDS011;10067;53.092;8.800;2023-04-08T04:14:20;37.78;;;22.67;;
19814;SDS011;10067;53.092;8.800;2023-04-08T04:16:46;40.40;;;24.00;;
19814;SDS011;10067;53.092;8.800;2023-04-08T04:19:14;35.78;;;23.33;;
19814;SDS011;10067;53.092;8.800;2023-04-08T04:21:41;38.53;;;23.25;;
19814;SDS011;10067;53.092;8.800;2023-04-08T04:24:08;37.83;;;23.85;;
19814;SDS011;10067;53.092;8.800;2023-04-08T04:26:34;39.03;;;23.13;;
19814;SDS011;10067;53.092;8.800;2023-04-08T04:29:00;39.58;;;23.55;;
19814;SDS011;10067;53.092;8.800;2023-04-08T04:31:27;37.55;;;21.95;;
19814;SDS011;10067;53.092;8.800;2023-04-08T04:33:53;43.03;;;24.23;;
19814;SDS011;10067;53.092;8.800;2023-04-08T04:36:21;37.83;;;24.00;;
19814;SDS011;10067;53.092;8.800;2023-04-08T04:38:48;38.47;;;23.80;;
19814;SDS011;10067;53.092;8.800;2023-04-08T04:41:14;39.30;;;23.70;;
19814;SDS011;10067;53.092;8.800;2023-04-08T04:43:41;38.05;;;23.38;;
19814;SDS011;10067;53.092;8.800;2023-04-08T04:46:07;35.50;;;21.83;;
19814;SDS011;10067;53.092;8.800;2023-04-08T04:48:34;41.25;;;24.13;;
19814;SDS011;10067;53.092;8.800;2023-04-08T04:51:00;35.33;;;23.00;;
19814;SDS011;10067;53.092;8.800;2023-04-08T04:53:28;36.53;;;22.35;;
19814;SDS011;10067;53.092;8.800;2023-04-08T04:55:55;36.92;;;23.70;;
19814;SDS011;10067;53.092;8.800;2023-04-08T04:58:21;37.45;;;22.13;;
19814;SDS011;10067;53.092;8.800;2023-04-08T05:00:48;42.55;;;23.58;;
19814;SDS011;10067;53.092;8.800;2023-04-08T05:03:14;40.03;;;22.48;;
19814;SDS011;10067;53.092;8.800;2023-04-08T05:05:40;35.83;;;21.90;;
19814;SDS011;10067;53.092;8.800;2023-04-08T05:08:07;36.53;;;22.98;;
19814;SDS011;10067;53.092;8.800;2023-04-08T05:10:35;38.33;;;22.45;;
19814;SDS011;10067;53.092;8.800;2023-04-08T05:13:01;36.10;;;21.65;;
19814;SDS011;10067;53.092;8.800;2023-04-08T05:15:27;37.38;;;22.10;;
19814;SDS011;10067;53.092;8.800;2023-04-08T05:17:54;42.42;;;22.23;;
19814;SDS011;10067;53.092;8.800;2023-04-08T05:20:20;37.13;;;21.05;;
19814;SDS011;10067;53.092;8.800;2023-04-08T05:22:48;43.50;;;23.50;;
19814;SDS011;10067;53.092;8.800;2023-04-08T05:25:14;36.17;;;20.48;;
19814;SDS011;10067;53.092;8.800;2023-04-08T05:27:42;36.53;;;21.23;;
19814;SDS011;10067;53.092;8.800;2023-04-08T05:30:09;39.20;;;22.33;;
19814;SDS011;10067;53.092;8.800;2023-04-08T05:32:35;36.42;;;20.77;;
19814;SDS011;10067;53.092;8.800;2023-04-08T05:35:02;36.92;;;20.70;;
19814;SDS011;10067;53.092;8.800;2023-04-08T05:37:29;41.95;;;22.52;;
19814;SDS011;10067;53.092;8.800;2023-04-08T05:39:56;34.78;;;21.83;;
19814;SDS011;10067;53.092;8.800;2023-04-08T05:42:22;38.30;;;19.90;;
19814;SDS011;10067;53.092;8.800;2023-04-08T05:44:50;37.28;;;21.00;;
19814;SDS011;10067;53.092;8.800;2023-04-08T05:47:16;38.80;;;20.30;;
19814;SDS011;10067;53.092;8.800;2023-04-08T05:49:43;32.17;;;18.77;;
19814;SDS011;10067;53.092;8.800;2023-04-08T05:52:09;33.50;;;19.20;;
19814;SDS011;10067;53.092;8.800;2023-04-08T05:54:36;36.35;;;19.27;;
19814;SDS011;10067;53.092;8.800;2023-04-08T05:57:02;33.83;;;19.75;;
19814;SDS011;10067;53.092;8.800;2023-04-08T05:59:29;32.50;;;17.08;;
19814;SDS011;10067;53.092;8.800;2023-04-08T06:01:57;30.35;;;18.80;;
19814;SDS011;10067;53.092;8.800;2023-04-08T06:04:23;30.10;;;18.27;;
19814;SDS011;10067;53.092;8.800;2023-04-08T06:06:50;34.47;;;17.77;;
19814;SDS011;10067;53.092;8.800;2023-04-08T06:09:16;26.98;;;18.50;;
19814;SDS011;10067;53.092;8.800;2023-04-08T06:11:43;27.92;;;18.20;;
19814;SDS011;10067;53.092;8.800;2023-04-08T06:14:11;29.10;;;18.20;;
19814;SDS011;10067;53.092;8.800;2023-04-08T06:16:37;31.33;;;19.17;;
19814;SDS011;10067;53.092;8.800;2023-04-08T06:19:05;28.20;;;17.45;;
19814;SDS011;10067;53.092;8.800;2023-04-08T06:21:31;28.80;;;18.10;;
19814;SDS011;10067;53.092;8.800;2023-04-08T06:23:58;30.38;;;18.13;;
19814;SDS011;10067;53.092;8.800;2023-04-08T06:26:24;30.45;;;17.50;;
19814;SDS011;10067;53.092;8.800;2023-04-08T06:28:52;27.17;;;17.85;;
19814;SDS011;10067;53.092;8.800;2023-04-08T06:31:18;27.52;;;16.63;;
19814;SDS011;10067;53.092;8.800;2023-04-08T06:33:45;30.88;;;18.48;;
19814;SDS011;10067;53.092;8.800;2023-04-08T06:36:13;27.40;;;17.20;;
19814;SDS011;10067;53.092;8.800;2023-04-08T06:38:39;27.23;;;17.67;;
19814;SDS011;10067;53.092;8.800;2023-04-08T06:41:06;28.77;;;17.55;;
19814;SDS011;10067;53.092;8.800;2023-04-08T06:43:33;29.88;;;17.58;;
19814;SDS011;10067;53.092;8.800;2023-04-08T06:45:59;30.48;;;18.70;;
19814;SDS011;10067;53.092;8.800;2023-04-08T06:48:26;28.08;;;17.73;;
19814;SDS011;10067;53.092;8.800;2023-04-08T06:50:54;29.67;;;18.27;;
19814;SDS011;10067;53.092;8.800;2023-04-08T06:53:22;30.40;;;17.80;;
19814;SDS011;10067;53.092;8.800;2023-04-08T06:55:49;25.73;;;17.55;;
19814;SDS011;10067;53.092;8.800;2023-04-08T06:58:16;27.88;;;16.58;;
19814;SDS011;10067;53.092;8.800;2023-04-08T07:00:42;27.40;;;17.15;;
19814;SDS011;10067;53.092;8.800;2023-04-08T07:03:09;26.80;;;16.67;;
19814;SDS011;10067;53.092;8.800;2023-04-08T07:05:35;23.63;;;16.00;;
19814;SDS011;10067;53.092;8.800;2023-04-08T07:08:02;25.35;;;16.67;;
19814;SDS011;10067;53.092;8.800;2023-04-08T07:10:30;27.40;;;17.10;;
19814;SDS011;10067;53.092;8.800;2023-04-08T07:12:57;27.33;;;16.95;;
19814;SDS011;10067;53.092;8.800;2023-04-08T07:15:23;28.20;;;16.77;;
19814;SDS011;10067;53.092;8.800;2023-04-08T07:17:50;26.98;;;17.52;;
19814;SDS011;10067;53.092;8.800;2023-04-08T07:20:16;30.63;;;18.58;;
19814;SDS011;10067;53.092;8.800;2023-04-08T07:22:43;27.00;;;17.85;;
19814;SDS011;10067;53.092;8.800;2023-04-08T07:25:10;27.17;;;17.65;;
19814;SDS011;10067;53.092;8.800;2023-04-08T07:27:38;28.77;;;17.73;;
19814;SDS011;10067;53.092;8.800;2023-04-08T07:30:05;27.13;;;18.73;;
19814;SDS011;10067;53.092;8.800;2023-04-08T07:32:32;30.73;;;19.63;;
19814;SDS011;10067;53.092;8.800;2023-04-08T07:34:58;30.35;;;20.08;;
19814;SDS011;10067;53.092;8.800;2023-04-08T07:37:25;31.88;;;20.45;;
19814;SDS011;10067;53.092;8.800;2023-04-08T07:39:51;25.42;;;18.40;;
19814;SDS011;10067;53.092;8.800;2023-04-08T07:42:18;29.20;;;19.02;;
19814;SDS011;10067;53.092;8.800;2023-04-08T07:44:46;29.38;;;19.55;;
19814;SDS011;10067;53.092;8.800;2023-04-08T07:47:12;26.90;;;18.42;;
19814;SDS011;10067;53.092;8.800;2023-04-08T07:49:39;29.52;;;19.75;;
19814;SDS011;10067;53.092;8.800;2023-04-08T07:52:06;29.55;;;19.77;;
19814;SDS011;10067;53.092;8.800;2023-04-08T07:54:34;30.88;;;20.27;;
19814;SDS011;10067;53.092;8.800;2023-04-08T07:57:01;30.70;;;20.65;;
19814;SDS011;10067;53.092;8.800;2023-04-08T07:59:27;30.13;;;20.73;;
19814;SDS011;10067;53.092;8.800;2023-04-08T08:01:56;25.58;;;18.60;;
19814;SDS011;10067;53.092;8.800;2023-04-08T08:04:22;27.02;;;18.85;;
19814;SDS011;10067;53.092;8.800;2023-04-08T08:06:50;28.65;;;19.65;;
19814;SDS011;10067;53.092;8.800;2023-04-08T08:09:16;28.27;;;17.98;;
19814;SDS011;10067;53.092;8.800;2023-04-08T08:11:43;27.13;;;18.05;;
19814;SDS011;10067;53.092;8.800;2023-04-08T08:14:10;25.52;;;18.70;;
19814;SDS011;10067;53.092;8.800;2023-04-08T08:16:38;25.23;;;18.85;;
19814;SDS011;10067;53.092;8.800;2023-04-08T08:19:06;26.25;;;18.58;;
19814;SDS011;10067;53.092;8.800;2023-04-08T08:21:37;27.30;;;19.65;;
19814;SDS011;10067;53.092;8.800;2023-04-08T08:24:04;30.98;;;19.20;;
19814;SDS011;10067;53.092;8.800;2023-04-08T08:26:33;27.90;;;19.00;;
19814;SDS011;10067;53.092;8.800;2023-04-08T08:29:00;27.38;;;19.15;;
19814;SDS011;10067;53.092;8.800;2023-04-08T08:31:27;26.98;;;18.88;;
19814;SDS011;10067;53.092;8.800;2023-04-08T08:33:53;27.42;;;19.15;;
19814;SDS011;10067;53.092;8.800;2023-04-08T08:36:21;24.33;;;17.80;;
19814;SDS011;10067;53.092;8.800;2023-04-08T08:38:48;25.33;;;18.50;;
19814;SDS011;10067;53.092;8.800;2023-04-08T08:41:15;26.23;;;18.73;;
19814;SDS011;10067;53.092;8.800;2023-04-08T08:43:42;25.42;;;17.88;;
19814;SDS011;10067;53.092;8.800;2023-04-08T08:46:09;30.30;;;19.55;;
19814;SDS011;10067;53.092;8.800;2023-04-08T08:48:36;26.77;;;18.52;;
19814;SDS011;10067;53.092;8.800;2023-04-08T08:51:07;25.63;;;17.60;;
19814;SDS011;10067;53.092;8.800;2023-04-08T08:53:34;27.20;;;17.35;;
19814;SDS011;10067;53.092;8.800;2023-04-08T08:56:01;26.55;;;17.75;;
19814;SDS011;10067;53.092;8.800;2023-04-08T08:58:27;27.52;;;18.65;;
19814;SDS011;10067;53.092;8.800;2023-04-08T09:00:54;31.95;;;18.45;;
19814;SDS011;10067;53.092;8.800;2023-04-08T09:03:21;24.90;;;17.15;;
19814;SDS011;10067;53.092;8.800;2023-04-08T09:05:49;25.88;;;17.67;;
19814;SDS011;10067;53.092;8.800;2023-04-08T09:08:25;28.08;;;17.17;;
19814;SDS011;10067;53.092;8.800;2023-04-08T09:10:53;27.95;;;18.63;;
19814;SDS011;10067;53.092;8.800;2023-04-08T09:13:20;30.33;;;18.95;;
19814;SDS011;10067;53.092;8.800;2023-04-08T09:16:00;28.63;;;17.35;;
19814;SDS011;10067;53.092;8.800;2023-04-08T09:18:26;29.48;;;19.52;;
19814;SDS011;10067;53.092;8.800;2023-04-08T09:20:53;25.23;;;16.98;;
19814;SDS011;10067;53.092;8.800;2023-04-08T09:23:19;27.00;;;18.48;;
19814;SDS011;10067;53.092;8.800;2023-04-08T09:25:45;30.70;;;18.83;;
19814;SDS011;10067;53.092;8.800;2023-04-08T09:28:18;29.00;;;19.30;;
19814;SDS011;10067;53.092;8.800;2023-04-08T09:30:45;30.33;;;17.88;;
19814;SDS011;10067;53.092;8.800;2023-04-08T09:33:12;28.60;;;18.67;;
19814;SDS011;10067;53.092;8.800;2023-04-08T09:35:38;26.77;;;18.35;;
19814;SDS011;10067;53.092;8.800;2023-04-08T09:38:05;31.17;;;17.90;;
19814;SDS011;10067;53.092;8.800;2023-04-08T09:40:34;32.88;;;18.80;;
19814;SDS011;10067;53.092;8.800;2023-04-08T09:43:01;30.45;;;19.70;;
19814;SDS011;10067;53.092;8.800;2023-04-08T09:45:31;30.13;;;19.90;;
19814;SDS011;10067;53.092;8.800;2023-04-08T09:48:00;34.17;;;20.83;;
19814;SDS011;10067;53.092;8.800;2023-04-08T09:50:30;29.38;;;20.05;;
19814;SDS011;10067;53.092;8.800;2023-04-08T09:52:59;31.77;;;20.58;;
19814;SDS011;10067;53.092;8.800;2023-04-08T09:55:26;30.60;;;19.98;;
19814;SDS011;10067;53.092;8.800;2023-04-08T09:57:57;32.45;;;22.33;;
19814;SDS011;10067;53.092;8.800;2023-04-08T10:00:27;30.98;;;20.38;;
19814;SDS011;10067;53.092;8.800;2023-04-08T10:03:04;33.95;;;20.75;;
19814;SDS011;10067;53.092;8.800;2023-04-08T10:05:32;33.42;;;21.50;;
19814;SDS011;10067;53.092;8.800;2023-04-08T10:08:00;38.55;;;22.80;;
19814;SDS011;10067;53.092;8.800;2023-04-08T10:10:26;34.80;;;21.95;;
19814;SDS011;10067;53.092;8.800;2023-04-08T10:12:53;30.95;;;21.35;;
19814;SDS011;10067;53.092;8.800;2023-04-08T10:15:23;36.97;;;21.77;;
19814;SDS011;10067;53.092;8.800;2023-04-08T10:17:50;37.25;;;23.48;;
19814;SDS011;10067;53.092;8.800;2023-04-08T10:23:03;38.00;;;23.17;;
19814;SDS011;10067;53.092;8.800;2023-04-08T10:25:31;37.72;;;23.20;;
19814;SDS011;10067;53.092;8.800;2023-04-08T10:27:57;39.05;;;23.83;;
19814;SDS011;10067;53.092;8.800;2023-04-08T10:30:40;39.75;;;24.77;;
19814;SDS011;10067;53.092;8.800;2023-04-08T10:33:10;37.03;;;22.77;;
19814;SDS011;10067;53.092;8.800;2023-04-08T10:35:38;37.72;;;23.92;;
19814;SDS011;10067;53.092;8.800;2023-04-08T10:38:07;40.53;;;23.75;;
19814;SDS011;10067;53.092;8.800;2023-04-08T10:40:34;39.72;;;23.88;;
19814;SDS011;10067;53.092;8.800;2023-04-08T10:43:01;41.58;;;25.20;;
19814;SDS011;10067;53.092;8.800;2023-04-08T10:45:28;42.50;;;24.20;;
19814;SDS011;10067;53.092;8.800;2023-04-08T10:47:54;45.33;;;24.98;;
19814;SDS011;10067;53.092;8.800;2023-04-08T10:50:21;41.58;;;25.70;;
19814;SDS011;10067;53.092;8.800;2023-04-08T10:52:48;41.65;;;26.25;;
19814;SDS011;10067;53.092;8.800;2023-04-08T10:55:19;39.17;;;25.20;;
19814;SDS011;10067;53.092;8.800;2023-04-08T10:57:47;42.60;;;24.42;;
19814;SDS011;10067;53.092;8.800;2023-04-08T11:00:16;44.38;;;27.48;;
19814;SDS011;10067;53.092;8.800;2023-04-08T11:02:43;40.55;;;24.77;;
19814;SDS011;10067;53.092;8.800;2023-04-08T11:05:09;42.42;;;25.58;;
19814;SDS011;10067;53.092;8.800;2023-04-08T11:07:38;37.25;;;24.33;;
19814;SDS011;10067;53.092;8.800;2023-04-08T11:10:06;40.35;;;25.25;;
19814;SDS011;10067;53.092;8.800;2023-04-08T11:12:34;41.00;;;25.58;;
19814;SDS011;10067;53.092;8.800;2023-04-08T11:15:02;46.97;;;25.95;;
19814;SDS011;10067;53.092;8.800;2023-04-08T11:17:29;37.10;;;23.92;;
19814;SDS011;10067;53.092;8.800;2023-04-08T11:19:59;39.88;;;24.88;;
19814;SDS011;10067;53.092;8.800;2023-04-08T11:22:30;36.45;;;24.05;;
19814;SDS011;10067;53.092;8.800;2023-04-08T11:24:57;43.47;;;25.35;;
19814;SDS011;10067;53.092;8.800;2023-04-08T11:27:24;41.40;;;25.65;;
19814;SDS011;10067;53.092;8.800;2023-04-08T11:29:52;41.45;;;24.48;;
19814;SDS011;10067;53.092;8.800;2023-04-08T11:32:20;39.00;;;23.90;;
19814;SDS011;10067;53.092;8.800;2023-04-08T11:34:47;37.85;;;24.08;;
19814;SDS011;10067;53.092;8.800;2023-04-08T11:37:13;37.53;;;24.25;;
19814;SDS011;10067;53.092;8.800;2023-04-08T11:39:41;40.15;;;24.20;;
19814;SDS011;10067;53.092;8.800;2023-04-08T11:42:08;39.50;;;24.65;;
19814;SDS011;10067;53.092;8.800;2023-04-08T11:44:34;40.38;;;24.65;;
19814;SDS011;10067;53.092;8.800;2023-04-08T11:47:02;39.55;;;24.92;;
19814;SDS011;10067;53.092;8.800;2023-04-08T11:49:42;42.25;;;24.05;;
19814;SDS011;10067;53.092;8.800;2023-04-08T11:52:08;40.10;;;24.50;;
19814;SDS011;10067;53.092;8.800;2023-04-08T11:54:39;39.25;;;24.25;;
19814;SDS011;10067;53.092;8.800;2023-04-08T11:57:06;40.22;;;24.80;;
19814;SDS011;10067;53.092;8.800;2023-04-08T11:59:34;44.78;;;26.00;;
19814;SDS011;10067;53.092;8.800;2023-04-08T12:02:00;44.65;;;25.48;;
19814;SDS011;10067;53.092;8.800;2023-04-08T12:04:28;39.35;;;24.67;;
19814;SDS011;10067;53.092;8.800;2023-04-08T12:06:55;41.85;;;25.75;;
19814;SDS011;10067;53.092;8.800;2023-04-08T12:09:21;43.13;;;25.30;;
19814;SDS011;10067;53.092;8.800;2023-04-08T12:11:48;37.25;;;24.02;;
19814;SDS011;10067;53.092;8.800;2023-04-08T12:14:15;37.97;;;24.48;;
19814;SDS011;10067;53.092;8.800;2023-04-08T12:16:42;36.42;;;23.33;;
19814;SDS011;10067;53.092;8.800;2023-04-08T12:19:08;35.22;;;23.10;;
19814;SDS011;10067;53.092;8.800;2023-04-08T12:21:36;36.15;;;24.42;;
19814;SDS011;10067;53.092;8.800;2023-04-08T12:24:02;39.00;;;24.08;;
19814;SDS011;10067;53.092;8.800;2023-04-08T12:26:29;36.38;;;23.48;;
19814;SDS011;10067;53.092;8.800;2023-04-08T12:28:55;34.53;;;23.70;;
19814;SDS011;10067;53.092;8.800;2023-04-08T12:31:22;38.95;;;23.15;;
19814;SDS011;10067;53.092;8.800;2023-04-08T12:33:48;42.85;;;24.55;;
19814;SDS011;10067;53.092;8.800;2023-04-08T12:36:14;37.40;;;23.35;;
19814;SDS011;10067;53.092;8.800;2023-04-08T12:38:42;37.17;;;23.20;;
19814;SDS011;10067;53.092;8.800;2023-04-08T12:41:09;45.28;;;24.50;;
19814;SDS011;10067;53.092;8.800;2023-04-08T12:43:35;41.10;;;24.60;;
19814;SDS011;10067;53.092;8.800;2023-04-08T12:46:03;37.67;;;23.95;;
19814;SDS011;10067;53.092;8.800;2023-04-08T12:48:29;41.67;;;24.88;;
19814;SDS011;10067;53.092;8.800;2023-04-08T12:50:56;43.28;;;25.30;;
19814;SDS011;10067;53.092;8.800;2023-04-08T12:53:22;39.10;;;23.67;;
19814;SDS011;10067;53.092;8.800;2023-04-08T12:55:50;40.60;;;25.45;;
19814;SDS011;10067;53.092;8.800;2023-04-08T12:58:21;41.20;;;25.40;;
19814;SDS011;10067;53.092;8.800;2023-04-08T13:00:47;37.38;;;24.27;;
19814;SDS011;10067;53.092;8.800;2023-04-08T13:03:14;38.03;;;23.83;;
19814;SDS011;10067;53.092;8.800;2023-04-08T13:05:42;40.60;;;25.65;;
19814;SDS011;10067;53.092;8.800;2023-04-08T13:08:08;42.17;;;24.45;;
19814;SDS011;10067;53.092;8.800;2023-04-08T13:10:35;39.00;;;25.55;;
19814;SDS011;10067;53.092;8.800;2023-04-08T13:13:02;40.38;;;24.88;;
19814;SDS011;10067;53.092;8.800;2023-04-08T13:15:29;38.45;;;24.42;;
19814;SDS011;10067;53.092;8.800;2023-04-08T13:17:55;41.40;;;23.92;;
19814;SDS011;10067;53.092;8.800;2023-04-08T13:20:22;41.35;;;24.15;;
19814;SDS011;10067;53.092;8.800;2023-04-08T13:22:50;43.28;;;25.98;;
19814;SDS011;10067;53.092;8.800;2023-04-08T13:25:16;41.45;;;24.67;;
19814;SDS011;10067;53.092;8.800;2023-04-08T13:27:43;39.15;;;23.90;;
19814;SDS011;10067;53.092;8.800;2023-04-08T13:30:11;37.00;;;24.60;;
19814;SDS011;10067;53.092;8.800;2023-04-08T13:32:38;38.85;;;24.88;;
19814;SDS011;10067;53.092;8.800;2023-04-08T13:35:04;40.47;;;25.77;;
19814;SDS011;10067;53.092;8.800;2023-04-08T13:37:31;47.13;;;25.90;;
19814;SDS011;10067;53.092;8.800;2023-04-08T13:39:57;44.78;;;26.45;;
19814;SDS011;10067;53.092;8.800;2023-04-08T13:42:24;41.00;;;25.77;;
19814;SDS011;10067;53.092;8.800;2023-04-08T13:44:50;39.60;;;24.30;;
19814;SDS011;10067;53.092;8.800;2023-04-08T13:47:18;40.33;;;25.70;;
19814;SDS011;10067;53.092;8.800;2023-04-08T13:49:45;39.83;;;24.58;;
19814;SDS011;10067;53.092;8.800;2023-04-08T13:52:11;37.97;;;24.85;;
19814;SDS011;10067;53.092;8.800;2023-04-08T13:54:37;45.67;;;28.67;;
19814;SDS011;10067;53.092;8.800;2023-04-08T13:57:04;48.10;;;29.20;;
19814;SDS011;10067;53.092;8.800;2023-04-08T13:59:30;44.05;;;28.55;;
19814;SDS011;10067;53.092;8.800;2023-04-08T14:01:57;43.65;;;29.23;;
19814;SDS011;10067;53.092;8.800;2023-04-08T14:04:26;42.70;;;28.23;;
19814;SDS011;10067;53.092;8.800;2023-04-08T14:06:52;46.08;;;27.88;;
19814;SDS011;10067;53.092;8.800;2023-04-08T14:09:21;47.05;;;30.63;;
19814;SDS011;10067;53.092;8.800;2023-04-08T14:11:48;47.92;;;30.05;;
19814;SDS011;10067;53.092;8.800;2023-04-08T14:14:15;46.28;;;30.40;;
19814;SDS011;10067;53.092;8.800;2023-04-08T14:16:41;49.55;;;29.35;;
19814;SDS011;10067;53.092;8.800;2023-04-08T14:19:09;46.45;;;30.35;;
19814;SDS011;10067;53.092;8.800;2023-04-08T14:21:36;57.83;;;31.50;;
19814;SDS011;10067;53.092;8.800;2023-04-08T14:24:03;49.95;;;30.83;;